Time;durP1;ratioP1;P1;durP2;ratioP2;P2;SDS_P1;SDS_P2;PMS_P1;PMS_P2;Temp;Humidity;BMP_temperature;BMP_pressure;BME280_temperature;BME280_humidity;BME280_pressure;Samples;Min_cycle;Max_cycle;Signal;HPM_P1;HPM_P2
2023/04/03 00:01:58;;;;;;;8.70;3.60;;;;;;;-0.10;100.00;103343.81;7382495;19;20198;-50
2023/04/03 00:04:28;;;;;;;8.35;3.40;;;;;;;-0.04;100.00;103336.97;7398116;19;20406;-48
2023/04/03 00:06:58;;;;;;;7.43;2.38;;;;;;;-0.15;100.00;103348.31;7385324;19;20571;-50
2023/04/03 00:09:30;;;;;;;8.60;3.05;;;;;;;-0.18;100.00;103338.69;7395703;19;20146;-48
2023/04/03 00:11:59;;;;;;;20.75;5.90;;;;;;;-0.17;100.00;103344.63;7385091;19;20226;-50
2023/04/03 00:14:29;;;;;;;13.18;3.60;;;;;;;-0.16;100.00;103352.47;7396069;19;20151;-51
2023/04/03 00:16:59;;;;;;;6.20;2.33;;;;;;;-0.24;100.00;103350.59;7381445;19;20194;-46
2023/04/03 00:19:29;;;;;;;5.00;1.92;;;;;;;-0.26;100.00;103346.03;7398405;19;20398;-51
2023/04/03 00:21:58;;;;;;;10.90;2.90;;;;;;;-0.21;100.00;103342.47;7379387;19;20205;-50
2023/04/03 00:24:30;;;;;;;6.38;2.10;;;;;;;-0.16;100.00;103343.91;7397693;19;20482;-46
2023/04/03 00:27:00;;;;;;;3.83;2.00;;;;;;;-0.18;100.00;103347.91;7390611;19;20591;-47
2023/04/03 00:29:30;;;;;;;20.63;6.03;;;;;;;-0.17;100.00;103343.03;7394922;19;20655;-48
2023/04/03 00:31:59;;;;;;;10.40;3.17;;;;;;;-0.18;100.00;103348.81;7384453;19;20222;-47
2023/04/03 00:34:29;;;;;;;34.92;11.15;;;;;;;-0.24;100.00;103345.50;7394872;19;20407;-48
2023/04/03 00:36:59;;;;;;;9.33;2.83;;;;;;;-0.21;100.00;103340.81;7390054;19;20578;-48
2023/04/03 00:39:32;;;;;;;13.00;3.80;;;;;;;-0.19;100.00;103344.47;7397232;19;20411;-48
2023/04/03 00:42:01;;;;;;;7.17;2.03;;;;;;;-0.31;100.00;103348.00;7391245;19;20230;-48
2023/04/03 00:45:04;;;;;;;7.68;2.17;;;;;;;-0.34;100.00;103360.25;7396675;19;20407;-48
2023/04/03 00:47:34;;;;;;;8.83;2.53;;;;;;;-0.34;100.00;103357.72;7395689;19;20205;-49
2023/04/03 00:50:04;;;;;;;8.80;1.98;;;;;;;-0.49;100.00;103364.28;7387455;19;20431;-50
2023/04/03 00:52:34;;;;;;;5.13;1.95;;;;;;;-0.59;100.00;103359.66;7395611;19;20211;-52
2023/04/03 00:55:09;;;;;;;11.73;2.03;;;;;;;-0.58;100.00;103358.94;7393577;19;20705;-49
2023/04/03 00:57:38;;;;;;;9.73;1.95;;;;;;;-0.55;100.00;103360.25;7395651;19;20426;-51
2023/04/03 01:00:12;;;;;;;7.93;2.70;;;;;;;-0.57;100.00;103360.75;7390638;19;20147;-53
2023/04/03 01:02:42;;;;;;;13.68;1.75;;;;;;;-0.56;100.00;103358.41;7395260;19;20259;-49
2023/04/03 01:05:12;;;;;;;19.17;3.00;;;;;;;-0.60;100.00;103360.38;7391737;19;20652;-52
2023/04/03 01:07:42;;;;;;;27.55;7.45;;;;;;;-0.49;100.00;103369.34;7395206;19;20519;-49
2023/04/03 01:10:17;;;;;;;6.30;2.30;;;;;;;-0.48;100.00;103361.03;7389148;19;20624;-50
2023/04/03 01:12:48;;;;;;;12.27;3.03;;;;;;;-0.48;100.00;103361.03;7395209;19;20185;-49
2023/04/03 01:15:20;;;;;;;8.50;3.37;;;;;;;-0.52;100.00;103363.91;7389104;19;20605;-47
2023/04/03 01:17:51;;;;;;;15.50;5.55;;;;;;;-0.59;100.00;103362.19;7393310;19;20403;-50
2023/04/03 01:20:59;;;;;;;11.32;2.17;;;;;;;-0.59;100.00;103372.34;7387288;19;20198;-49
2023/04/03 01:23:38;;;;;;;9.13;1.73;;;;;;;-0.67;100.00;103373.88;7393832;19;20138;-50
2023/04/03 01:26:11;;;;;;;9.55;2.38;;;;;;;-0.66;100.00;103375.72;7390121;19;20186;-48
2023/04/03 01:28:41;;;;;;;4.50;2.13;;;;;;;-0.62;100.00;103366.88;7395508;19;20150;-49
2023/04/03 01:31:17;;;;;;;7.05;2.00;;;;;;;-0.71;100.00;103370.03;7390462;19;20275;-47
2023/04/03 01:33:49;;;;;;;7.80;2.28;;;;;;;-0.73;100.00;103362.94;7394013;19;20163;-48
2023/04/03 01:36:22;;;;;;;9.15;2.60;;;;;;;-0.61;100.00;103358.56;7389059;19;20198;-51
2023/04/03 01:38:51;;;;;;;7.15;1.98;;;;;;;-0.70;100.00;103360.81;7393306;19;20146;-51
2023/04/03 01:41:21;;;;;;;9.30;2.15;;;;;;;-0.77;100.00;103368.34;7390091;19;20234;-51
2023/04/03 01:43:52;;;;;;;5.55;1.80;;;;;;;-0.79;100.00;103367.22;7393308;19;20502;-53
2023/04/03 01:46:22;;;;;;;7.85;2.80;;;;;;;-0.86;100.00;103366.41;7388695;19;20194;-50
2023/04/03 01:48:54;;;;;;;11.25;2.45;;;;;;;-0.75;100.00;103365.28;7390809;19;20163;-48
2023/04/03 01:51:24;;;;;;;6.40;2.15;;;;;;;-0.98;100.00;103364.81;7390582;19;20206;-48
2023/04/03 01:53:53;;;;;;;12.65;3.00;;;;;;;-0.77;100.00;103361.63;7391303;19;20179;-50
2023/04/03 01:56:23;;;;;;;6.20;2.65;;;;;;;-0.93;100.00;103360.38;7387831;19;20223;-46
2023/04/03 01:58:53;;;;;;;8.77;1.80;;;;;;;-0.90;100.00;103358.22;7392198;19;20135;-52
2023/04/03 02:01:23;;;;;;;6.95;2.15;;;;;;;-0.85;100.00;103359.72;7390234;19;20230;-51
2023/04/03 02:03:55;;;;;;;7.68;2.78;;;;;;;-0.87;100.00;103356.09;7392928;19;20139;-48
2023/04/03 02:06:25;;;;;;;6.10;2.45;;;;;;;-0.83;100.00;103361.75;7388735;19;20602;-51
2023/04/03 02:08:54;;;;;;;10.23;3.92;;;;;;;-0.76;100.00;103357.47;7392929;19;20171;-47
2023/04/03 02:11:24;;;;;;;10.63;3.50;;;;;;;-0.78;100.00;103359.81;7388752;19;20206;-52
2023/04/03 02:13:54;;;;;;;8.98;2.50;;;;;;;-0.83;100.00;103360.84;7391517;19;20167;-49
2023/04/03 02:16:23;;;;;;;7.72;2.15;;;;;;;-0.94;100.00;103361.09;7388058;19;20222;-46
2023/04/03 02:18:56;;;;;;;6.30;2.60;;;;;;;-1.00;100.00;103357.03;7391637;19;20135;-50
2023/04/03 02:21:26;;;;;;;7.40;2.17;;;;;;;-0.90;100.00;103350.63;7388729;19;20212;-50
2023/04/03 02:23:56;;;;;;;10.05;4.15;;;;;;;-0.93;100.00;103360.38;7391188;19;20179;-49
2023/04/03 02:26:25;;;;;;;4.47;1.83;;;;;;;-0.81;100.00;103359.44;7388767;19;20219;-47
2023/04/03 02:28:55;;;;;;;4.53;1.90;;;;;;;-0.89;100.00;103366.03;7391441;19;20147;-50
2023/04/03 02:31:25;;;;;;;9.02;2.60;;;;;;;-0.94;100.00;103367.06;7388704;19;20209;-53
2023/04/03 02:33:57;;;;;;;12.07;3.30;;;;;;;-0.85;100.00;103362.28;7392572;19;20245;-50
2023/04/03 02:36:26;;;;;;;8.15;2.60;;;;;;;-1.00;100.00;103374.78;7387637;19;20202;-48
2023/04/03 02:38:56;;;;;;;8.68;2.03;;;;;;;-1.11;100.00;103377.53;7392316;19;20143;-51
2023/04/03 02:41:31;;;;;;;6.57;2.45;;;;;;;-0.99;100.00;103369.00;7389268;19;20202;-47
2023/04/03 02:44:01;;;;;;;8.10;2.40;;;;;;;-1.06;100.00;103371.44;7390983;19;20135;-51
2023/04/03 02:46:30;;;;;;;9.85;2.55;;;;;;;-1.05;100.00;103372.34;7387706;19;20218;-47
2023/04/03 02:49:03;;;;;;;9.18;3.25;;;;;;;-1.01;100.00;103370.44;7390429;19;20151;-48
2023/04/03 02:51:32;;;;;;;10.68;3.45;;;;;;;-0.98;100.00;103380.03;7387840;19;20210;-50
2023/04/03 02:54:02;;;;;;;9.38;2.60;;;;;;;-1.12;100.00;103370.66;7389399;19;20168;-50
2023/04/03 02:56:31;;;;;;;8.32;2.72;;;;;;;-1.14;100.00;103377.09;7387182;19;20219;-48
2023/04/03 02:59:01;;;;;;;9.13;2.63;;;;;;;-1.00;100.00;103372.25;7393466;19;20139;-49
2023/04/03 03:01:31;;;;;;;7.30;2.05;;;;;;;-1.08;100.00;103375.38;7394936;19;20206;-47
2023/04/03 03:04:03;;;;;;;11.25;4.22;;;;;;;-1.07;100.00;103369.63;7397148;19;20146;-50
2023/04/03 03:06:33;;;;;;;23.48;2.80;;;;;;;-0.88;100.00;103364.44;7394678;19;20667;-48
2023/04/03 03:09:03;;;;;;;5.15;2.10;;;;;;;-0.90;100.00;103359.16;7396623;19;20261;-48
2023/04/03 03:11:32;;;;;;;8.02;2.60;;;;;;;-0.86;100.00;103368.06;7395332;19;20229;-50
2023/04/03 03:14:02;;;;;;;8.05;2.53;;;;;;;-0.95;100.00;103385.50;7399401;19;20135;-48
2023/04/03 03:16:32;;;;;;;8.48;2.50;;;;;;;-1.04;100.00;103379.25;7393973;19;20194;-50
2023/04/03 03:19:04;;;;;;;10.32;1.90;;;;;;;-1.11;100.00;103377.53;7396236;19;20650;-50
2023/04/03 03:21:33;;;;;;;11.95;3.25;;;;;;;-1.07;100.00;103384.84;7394813;19;20206;-49
2023/04/03 03:24:03;;;;;;;7.35;2.65;;;;;;;-0.87;100.00;103377.28;7396311;19;20155;-51
2023/04/03 03:26:32;;;;;;;7.63;3.10;;;;;;;-0.94;100.00;103377.19;7393927;19;20536;-53
2023/04/03 03:29:02;;;;;;;20.10;3.15;;;;;;;-0.96;100.00;103387.13;7398976;19;20135;-52
2023/04/03 03:31:32;;;;;;;6.53;2.88;;;;;;;-0.86;100.00;103378.19;7394266;19;20199;-51
2023/04/03 03:34:04;;;;;;;13.65;5.25;;;;;;;-0.30;100.00;103357.41;7396243;19;20549;-51
2023/04/03 03:36:34;;;;;;;31.73;13.40;;;;;;;0.45;100.00;103338.75;7393953;19;20195;-53
2023/04/03 03:39:04;;;;;;;36.25;14.27;;;;;;;0.43;100.00;103342.72;7397873;19;20150;-53
2023/04/03 03:41:33;;;;;;;40.47;18.52;;;;;;;0.59;100.00;103346.44;7394798;19;20217;-53
2023/04/03 03:44:03;;;;;;;25.37;11.00;;;;;;;0.81;100.00;103356.72;7396096;19;20167;-50
2023/04/03 03:46:32;;;;;;;14.00;4.75;;;;;;;0.19;100.00;103377.03;7393651;19;20431;-49
2023/04/03 03:49:05;;;;;;;6.03;2.25;;;;;;;-0.25;100.00;103402.06;7395608;19;20139;-52
2023/04/03 03:51:34;;;;;;;9.98;3.25;;;;;;;-0.52;100.00;103414.63;7393671;19;20206;-49
2023/04/03 03:54:04;;;;;;;9.32;3.35;;;;;;;-0.48;100.00;103411.75;7394932;19;20158;-48
2023/04/03 03:56:34;;;;;;;12.20;3.70;;;;;;;-0.45;100.00;103409.63;7393791;19;20202;-51
2023/04/03 03:59:03;;;;;;;7.97;2.60;;;;;;;-0.61;100.00;103421.97;7395052;19;20153;-52
2023/04/03 04:01:33;;;;;;;10.63;3.17;;;;;;;-0.45;100.00;103413.06;7393429;19;20215;-51
2023/04/03 04:04:05;;;;;;;8.68;3.03;;;;;;;-0.66;100.00;103416.31;7395797;19;20139;-48
2023/04/03 04:06:34;;;;;;;17.75;4.50;;;;;;;-0.59;100.00;103413.84;7393559;19;20588;-49
2023/04/03 04:09:04;;;;;;;10.20;3.50;;;;;;;-0.54;100.00;103416.97;7397758;19;20171;-49
2023/04/03 04:11:33;;;;;;;7.35;2.90;;;;;;;-0.59;100.00;103413.84;7390885;19;20557;-50
2023/04/03 04:14:03;;;;;;;6.63;2.88;;;;;;;-0.55;100.00;103425.28;7394590;19;20147;-47
2023/04/03 04:16:32;;;;;;;11.82;2.50;;;;;;;-0.51;100.00;103424.06;7392561;19;20565;-46
2023/04/03 04:19:05;;;;;;;10.52;3.55;;;;;;;-0.70;100.00;103427.69;7395013;19;20135;-49
2023/04/03 04:21:37;;;;;;;6.50;2.42;;;;;;;-0.78;100.00;103425.75;7393587;19;20670;-47
2023/04/03 04:24:07;;;;;;;9.88;2.75;;;;;;;-0.70;100.00;103419.13;7394794;19;20171;-49
2023/04/03 04:26:37;;;;;;;9.75;2.60;;;;;;;-0.80;100.00;103427.16;7392579;19;20214;-47
2023/04/03 04:29:06;;;;;;;7.25;2.70;;;;;;;-0.90;100.00;103426.66;7395007;19;20143;-47
2023/04/03 04:31:36;;;;;;;7.03;2.90;;;;;;;-0.80;100.00;103419.56;7392115;19;20810;-52
2023/04/03 04:34:08;;;;;;;10.82;2.42;;;;;;;-0.87;100.00;103422.00;7394523;19;20497;-51
2023/04/03 04:36:37;;;;;;;8.13;2.33;;;;;;;-0.72;100.00;103430.72;7392183;19;20658;-49
2023/04/03 04:39:07;;;;;;;8.75;3.10;;;;;;;-0.65;100.00;103435.88;7395284;19;20146;-53
2023/04/03 04:41:37;;;;;;;7.60;3.70;;;;;;;-0.48;100.00;103432.97;7392413;19;20671;-48
2023/04/03 04:44:06;;;;;;;8.85;2.88;;;;;;;0.23;100.00;103414.78;7394013;19;20142;-52
2023/04/03 04:46:36;;;;;;;7.60;3.07;;;;;;;0.79;100.00;103407.38;7391061;19;20186;-51
2023/04/03 04:49:08;;;;;;;130.80;53.33;;;;;;;0.70;100.00;103431.66;7393959;19;20422;-49
2023/04/03 04:51:37;;;;;;;7.83;3.60;;;;;;;0.06;100.00;103450.75;7391601;19;20496;-52
2023/04/03 04:54:20;;;;;;;71.53;32.00;;;;;;;0.77;100.00;103457.09;7393820;19;20396;-50
2023/04/03 04:56:50;;;;;;;42.70;20.13;;;;;;;0.62;100.00;103467.91;7392718;19;20443;-48
2023/04/03 04:59:20;;;;;;;93.97;39.30;;;;;;;1.26;100.00;103484.25;7394188;19;20403;-50
2023/04/03 05:01:50;;;;;;;27.47;12.40;;;;;;;0.99;100.00;103495.38;7392489;19;20899;-49
2023/04/03 05:04:22;;;;;;;16.73;7.60;;;;;;;0.06;100.00;103510.03;7393933;19;20390;-51
2023/04/03 05:06:52;;;;;;;6.90;3.00;;;;;;;-0.32;100.00;103522.16;7391529;19;20443;-51
2023/04/03 05:09:22;;;;;;;7.67;2.83;;;;;;;-0.55;100.00;103521.69;7394366;19;20792;-49
2023/04/03 05:11:51;;;;;;;6.53;2.67;;;;;;;-0.51;100.00;103523.88;7390800;19;20462;-58
2023/04/03 05:14:21;;;;;;;14.53;4.57;;;;;;;-0.63;100.00;103523.22;7394399;19;20169;-54
2023/04/03 05:16:52;;;;;;;17.42;4.95;;;;;;;-0.61;100.00;103520.88;7391751;19;20519;-54
2023/04/03 05:19:24;;;;;;;8.23;2.75;;;;;;;-0.59;100.00;103520.38;7393820;19;20142;-50
2023/04/03 05:21:54;;;;;;;10.43;4.07;;;;;;;-0.57;100.00;103520.53;7390610;19;20300;-54
2023/04/03 05:24:24;;;;;;;6.93;2.85;;;;;;;-0.68;100.00;103517.53;7393976;19;20419;-49
2023/04/03 05:26:54;;;;;;;8.35;2.72;;;;;;;-0.65;100.00;103514.50;7390828;19;20210;-47
2023/04/03 05:29:24;;;;;;;7.90;3.40;;;;;;;-0.55;100.00;103512.44;7395372;19;20154;-50
2023/04/03 05:31:53;;;;;;;16.13;3.53;;;;;;;-0.44;100.00;103511.31;7390647;19;20231;-51
2023/04/03 05:34:25;;;;;;;7.55;3.17;;;;;;;-0.21;100.00;103504.88;7393661;19;20585;-54
2023/04/03 05:36:55;;;;;;;7.63;3.33;;;;;;;-0.31;100.00;103508.75;7390496;19;20194;-55
2023/04/03 05:39:25;;;;;;;12.93;4.72;;;;;;;-0.25;100.00;103508.66;7392939;19;20171;-50
2023/04/03 05:41:54;;;;;;;10.10;3.20;;;;;;;-0.41;100.00;103516.78;7389798;19;20210;-52
2023/04/03 05:44:24;;;;;;;8.98;3.40;;;;;;;-0.60;100.00;103515.09;7393043;19;20158;-48
2023/04/03 05:46:54;;;;;;;11.80;2.90;;;;;;;-0.52;100.00;103519.53;7389573;19;20198;-50
2023/04/03 05:49:26;;;;;;;11.50;4.47;;;;;;;-0.45;100.00;103512.00;7394294;19;20156;-50
2023/04/03 05:51:55;;;;;;;11.00;4.40;;;;;;;-0.28;100.00;103509.16;7388865;19;20206;-49
2023/04/03 05:54:27;;;;;;;15.93;4.78;;;;;;;-0.30;100.00;103509.66;7393119;19;20503;-50
2023/04/03 05:56:56;;;;;;;9.93;3.90;;;;;;;-0.30;100.00;103512.22;7389673;19;20219;-52
2023/04/03 05:59:29;;;;;;;11.15;3.58;;;;;;;-0.23;100.00;103517.38;7392803;19;20166;-54
2023/04/03 06:01:58;;;;;;;17.25;4.32;;;;;;;-0.20;100.00;103517.75;7390092;19;20205;-52
2023/04/03 06:04:30;;;;;;;19.00;4.40;;;;;;;-0.04;100.00;103510.47;7392188;19;20139;-53
2023/04/03 06:07:00;;;;;;;11.00;3.63;;;;;;;0.01;100.00;103513.66;7389384;19;20212;-55
2023/04/03 06:09:31;;;;;;;8.23;3.05;;;;;;;0.04;100.00;103519.09;7392214;19;20583;-53
2023/04/03 06:12:01;;;;;;;10.85;3.05;;;;;;;0.05;100.00;103527.63;7388853;19;20198;-51
2023/04/03 06:14:31;;;;;;;10.67;3.70;;;;;;;0.25;100.00;103530.19;7391542;19;20563;-51
2023/04/03 06:17:01;;;;;;;7.53;2.70;;;;;;;0.26;100.00;103532.03;7389376;19;20443;-54
2023/04/03 06:19:33;;;;;;;11.23;3.70;;;;;;;0.35;100.00;103543.34;7392165;19;20462;-52
2023/04/03 06:22:03;;;;;;;4.97;2.50;;;;;;;0.43;100.00;103551.97;7389027;19;20476;-52
2023/04/03 06:24:33;;;;;;;10.27;3.80;;;;;;;0.47;100.00;103549.06;7391574;19;20948;-50
2023/04/03 06:27:02;;;;;;;10.20;2.70;;;;;;;0.51;100.00;103556.38;7389300;19;20480;-53
2023/04/03 06:29:32;;;;;;;8.30;2.83;;;;;;;0.65;100.00;103569.94;7391687;19;20424;-51
2023/04/03 06:32:01;;;;;;;6.43;2.40;;;;;;;0.71;100.00;103574.91;7388629;19;20453;-50
2023/04/03 06:34:34;;;;;;;12.03;2.70;;;;;;;0.71;100.00;103574.91;7395782;19;20415;-54
2023/04/03 06:37:03;;;;;;;12.63;3.30;;;;;;;0.97;100.00;103582.38;7396722;19;20437;-48
2023/04/03 06:39:33;;;;;;;10.00;3.50;;;;;;;0.96;100.00;103586.53;7397173;19;20390;-53
2023/04/03 06:42:02;;;;;;;7.63;2.93;;;;;;;1.18;100.00;103592.69;7395283;19;20465;-53
2023/04/03 06:44:33;;;;;;;7.33;2.30;;;;;;;1.25;100.00;103589.28;7397789;19;20395;-49
2023/04/03 06:47:03;;;;;;;10.03;3.00;;;;;;;1.33;100.00;103578.44;7395588;19;20471;-52
2023/04/03 06:49:36;;;;;;;7.30;2.57;;;;;;;1.55;100.00;103587.81;7397934;19;20404;-55
2023/04/03 06:52:07;;;;;;;9.60;4.30;;;;;;;1.54;100.00;103578.38;7395234;19;21028;-53
2023/04/03 06:54:36;;;;;;;8.63;2.63;;;;;;;1.68;100.00;103582.59;7397115;19;20947;-53
2023/04/03 06:57:06;;;;;;;7.23;2.87;;;;;;;1.74;100.00;103574.09;7395694;19;20446;-53
2023/04/03 06:59:36;;;;;;;9.23;3.47;;;;;;;1.89;100.00;103574.13;7399202;19;20407;-52
2023/04/03 07:02:06;;;;;;;9.20;4.10;;;;;;;1.94;100.00;103570.53;7392485;19;20438;-49
2023/04/03 07:04:38;;;;;;;11.83;5.00;;;;;;;2.03;100.00;103552.91;7399039;19;20416;-53
2023/04/03 07:07:08;;;;;;;7.20;2.27;;;;;;;2.14;100.00;103546.56;7395980;19;20471;-54
2023/04/03 07:09:37;;;;;;;9.40;2.70;;;;;;;2.25;100.00;103528.38;7397089;19;20392;-51
2023/04/03 07:12:07;;;;;;;10.17;2.83;;;;;;;2.29;100.00;103497.47;7394057;19;20487;-55
2023/04/03 07:14:37;;;;;;;5.50;2.40;;;;;;;2.37;100.00;103483.06;7399819;19;20421;-54
2023/04/03 07:17:06;;;;;;;10.57;3.53;;;;;;;2.55;100.00;103465.59;7391486;19;20459;-56
2023/04/03 07:19:38;;;;;;;9.70;2.20;;;;;;;2.59;100.00;103451.56;7397459;19;20412;-53
2023/04/03 07:22:08;;;;;;;16.73;6.10;;;;;;;2.90;100.00;103450.97;7394650;19;20487;-53
2023/04/03 07:24:38;;;;;;;11.10;4.40;;;;;;;3.66;100.00;103445.91;7396788;19;20428;-56
2023/04/03 07:27:08;;;;;;;26.57;14.00;;;;;;;3.95;100.00;103412.50;7394021;19;20792;-52
2023/04/03 07:29:37;;;;;;;15.00;4.93;;;;;;;3.81;100.00;103319.03;7396913;19;21019;-54
2023/04/03 07:32:08;;;;;;;28.23;13.73;;;;;;;4.03;100.00;103298.38;7393479;19;20443;-54
2023/04/03 07:34:40;;;;;;;13.87;5.43;;;;;;;3.89;100.00;103225.34;7399208;19;20407;-54
2023/04/03 07:37:10;;;;;;;16.40;4.57;;;;;;;3.68;100.00;103177.97;7392606;19;20447;-51
2023/04/03 07:39:39;;;;;;;11.33;3.63;;;;;;;3.64;100.00;103182.72;7396007;19;20408;-52
2023/04/03 07:42:09;;;;;;;19.33;4.70;;;;;;;3.49;100.00;103138.56;7391561;19;20461;-54
2023/04/03 07:44:40;;;;;;;7.17;2.93;;;;;;;3.62;100.00;103137.34;7395084;19;20408;-55
2023/04/03 07:47:09;;;;;;;6.30;2.40;;;;;;;3.70;100.00;103145.84;7393101;19;20814;-55
2023/04/03 07:49:42;;;;;;;7.77;2.97;;;;;;;3.74;100.00;103117.34;7398470;19;20975;-55
2023/04/03 07:52:12;;;;;;;5.93;2.17;;;;;;;3.75;100.00;103131.91;7392551;19;20482;-54
2023/04/03 07:54:42;;;;;;;9.90;2.20;;;;;;;3.80;100.00;103176.75;7398800;19;20428;-52
2023/04/03 07:57:11;;;;;;;4.97;1.70;;;;;;;3.77;100.00;103156.88;7393951;19;20456;-52
2023/04/03 07:59:42;;;;;;;10.87;2.47;;;;;;;3.63;100.00;103100.84;7394946;19;20411;-55
2023/04/03 08:02:12;;;;;;;6.27;2.03;;;;;;;3.70;100.00;103079.44;7393164;19;20447;-56
2023/04/03 08:04:44;;;;;;;7.50;2.77;;;;;;;3.77;100.00;103046.16;7397815;19;20403;-49
2023/04/03 08:07:14;;;;;;;19.70;5.80;;;;;;;3.86;100.00;103041.13;7394365;19;20454;-56
2023/04/03 08:09:44;;;;;;;6.93;1.20;;;;;;;3.78;100.00;102986.66;7397607;19;20404;-55
2023/04/03 08:12:14;;;;;;;6.50;2.00;;;;;;;3.79;100.00;103006.34;7393277;19;20530;-54
2023/04/03 08:14:44;;;;;;;13.90;3.40;;;;;;;3.73;100.00;102973.41;7390247;19;20408;-53
2023/04/03 08:17:13;;;;;;;12.73;3.87;;;;;;;3.81;100.00;102980.97;7393880;19;20822;-53
2023/04/03 08:19:46;;;;;;;7.97;2.10;;;;;;;3.80;100.00;102974.97;7397392;19;20408;-53
2023/04/03 08:22:16;;;;;;;7.50;2.10;;;;;;;3.94;100.00;102962.75;7393124;19;20458;-51
2023/04/03 08:24:45;;;;;;;5.23;1.70;;;;;;;4.04;100.00;102957.81;7394706;19;20408;-51
2023/04/03 08:27:28;;;;;;;12.43;3.67;;;;;;;4.11;100.00;102939.81;7396838;19;20483;-54
2023/04/03 08:29:58;;;;;;;8.47;2.57;;;;;;;4.15;100.00;102918.09;7390941;19;20396;-51
2023/04/03 08:32:27;;;;;;;5.13;1.60;;;;;;;4.41;100.00;102930.94;7393804;19;20451;-53
2023/04/03 08:35:00;;;;;;;15.47;5.10;;;;;;;4.48;100.00;102939.22;7394617;19;20422;-55
2023/04/03 08:37:30;;;;;;;15.57;5.40;;;;;;;4.49;100.00;102936.84;7394110;19;20403;-54
2023/04/03 08:39:59;;;;;;;10.80;3.87;;;;;;;4.53;100.00;102949.19;7390992;19;20431;-55
2023/04/03 08:42:39;;;;;;;9.77;2.70;;;;;;;4.57;100.00;102924.84;7393347;19;20447;-56
2023/04/03 08:45:13;;;;;;;8.83;2.40;;;;;;;4.49;100.00;102921.50;7392324;19;20414;-56
2023/04/03 08:47:45;;;;;;;4.37;1.33;;;;;;;4.59;100.00;102897.75;7396907;19;20939;-55
2023/04/03 08:50:19;;;;;;;7.43;1.70;;;;;;;4.66;100.00;102887.41;7392326;19;20440;-51
2023/04/03 08:52:51;;;;;;;4.07;1.47;;;;;;;4.64;100.00;102888.00;7394514;19;20447;-56
2023/04/03 08:55:25;;;;;;;12.40;3.83;;;;;;;4.80;100.00;102893.91;7391896;19;20403;-55
2023/04/03 08:58:01;;;;;;;7.93;2.27;;;;;;;4.89;100.00;102883.69;7392497;19;20406;-55
2023/04/03 09:00:33;;;;;;;4.30;1.57;;;;;;;5.07;100.00;102886.25;7391278;19;20411;-55
2023/04/03 09:03:03;;;;;;;4.70;1.60;;;;;;;5.13;100.00;102876.63;7395300;19;20451;-54
2023/04/03 09:05:42;;;;;;;3.93;1.10;;;;;;;5.32;100.00;102880.97;7391481;19;20431;-53
2023/04/03 09:08:19;;;;;;;8.53;2.27;;;;;;;5.36;100.00;102880.50;7393892;19;20775;-57
2023/04/03 09:10:49;;;;;;;5.13;1.80;;;;;;;5.43;100.00;102879.44;7391602;19;20430;-53
2023/04/03 09:13:27;;;;;;;7.00;1.73;;;;;;;5.45;100.00;102878.84;7394006;19;20466;-53
2023/04/03 09:15:58;;;;;;;3.30;1.10;;;;;;;5.29;100.00;102888.34;7389545;19;20451;-54
2023/04/03 09:18:32;;;;;;;5.00;1.47;;;;;;;5.12;100.00;102915.72;7393899;19;20519;-53
2023/04/03 09:21:11;;;;;;;6.97;1.70;;;;;;;5.16;100.00;102915.28;7390353;19;20462;-54
2023/04/03 09:23:46;;;;;;;5.60;1.30;;;;;;;5.00;100.00;102934.25;7394324;19;20399;-53
2023/04/03 09:26:19;;;;;;;4.80;1.00;;;;;;;4.82;100.00;102943.53;7389684;19;21005;-47
2023/04/03 09:28:49;;;;;;;7.50;2.00;;;;;;;4.97;100.00;102926.25;7394599;19;20415;-51
2023/04/03 09:31:23;;;;;;;6.50;1.40;;;;;;;5.48;100.00;102894.50;7391007;19;20427;-48
2023/04/03 09:33:56;;;;;;;2.90;0.93;;;;;;;5.57;100.00;102925.22;7388394;19;20507;-51
2023/04/03 09:36:46;;;;;;;5.50;1.97;;;;;;;5.71;100.00;102920.50;7393351;19;20825;-55
2023/04/03 09:39:18;;;;;;;2.90;1.10;;;;;;;5.53;100.00;102972.66;7392809;19;20415;-54
2023/04/03 09:41:59;;;;;;;6.57;2.30;;;;;;;5.56;98.96;102986.50;7387304;19;20447;-56
2023/04/03 09:44:30;;;;;;;6.90;1.63;;;;;;;5.56;97.96;102989.06;7393093;19;20400;-51
2023/04/03 09:47:00;;;;;;;14.87;7.10;;;;;;;6.15;100.00;102969.13;7388720;19;20454;-53
2023/04/03 09:49:30;;;;;;;9.97;3.53;;;;;;;6.63;99.08;102989.00;7392923;19;20424;-52
2023/04/03 09:52:21;;;;;;;4.13;1.60;;;;;;;6.53;97.27;102997.50;7387381;19;20462;-53
2023/04/03 09:54:50;;;;;;;38.43;20.83;;;;;;;6.87;100.00;102969.84;7392631;19;20416;-54
2023/04/03 09:57:21;;;;;;;36.00;18.70;;;;;;;6.93;100.00;102972.09;7391266;19;20450;-55
2023/04/03 10:00:00;;;;;;;46.30;24.77;;;;;;;7.08;99.67;102977.72;7394916;19;20745;-54
2023/04/03 10:02:40;;;;;;;48.00;25.23;;;;;;;7.32;99.07;102983.28;7388720;19;20501;-54
2023/04/03 10:05:33;;;;;;;34.27;16.10;;;;;;;6.71;92.91;102997.41;7391768;19;20415;-51
2023/04/03 10:08:25;;;;;;;13.63;5.93;;;;;;;6.76;96.92;102983.34;7391566;19;20809;-50
2023/04/03 10:11:13;;;;;;;22.67;8.97;;;;;;;6.70;92.43;102996.50;7389854;19;20439;-46
2023/04/03 10:13:53;;;;;;;10.77;4.57;;;;;;;6.67;92.47;102992.75;7392304;19;20440;-48
2023/04/03 10:16:24;;;;;;;11.13;4.77;;;;;;;6.39;94.51;102975.69;7390226;19;20443;-53
2023/04/03 10:19:01;;;;;;;13.37;2.83;;;;;;;6.77;94.05;102974.88;7392524;19;20410;-52
2023/04/03 10:21:37;;;;;;;9.00;3.70;;;;;;;6.61;89.31;102994.00;7389377;19;20439;-54
2023/04/03 10:24:14;;;;;;;15.10;7.50;;;;;;;7.10;91.56;102991.59;7391860;19;20400;-55
2023/04/03 10:26:50;;;;;;;7.37;2.43;;;;;;;6.85;87.05;103012.44;7389784;19;20446;-51
2023/04/03 10:29:30;;;;;;;11.83;5.57;;;;;;;6.86;90.34;102995.38;7391925;19;20403;-52
2023/04/03 10:32:09;;;;;;;7.37;3.03;;;;;;;6.78;90.32;102988.63;7389585;19;20463;-53
2023/04/03 10:34:43;;;;;;;9.33;3.13;;;;;;;6.77;90.65;102991.97;7391111;19;20757;-53
2023/04/03 10:37:22;;;;;;;3.63;1.10;;;;;;;6.39;88.73;102992.72;7382789;19;20451;-52
2023/04/03 10:39:59;;;;;;;9.77;3.80;;;;;;;6.18;88.76;102984.78;7393066;19;20939;-51
2023/04/03 10:42:32;;;;;;;8.23;1.67;;;;;;;6.10;88.60;102986.63;7387835;19;20475;-53
2023/04/03 10:45:14;;;;;;;10.90;3.10;;;;;;;6.18;88.58;102979.66;7390844;19;20399;-54
2023/04/03 10:47:50;;;;;;;4.27;1.33;;;;;;;6.47;88.40;102984.09;7389545;19;20480;-54
2023/04/03 10:50:30;;;;;;;6.20;2.27;;;;;;;6.48;89.37;102980.78;7391292;19;20407;-52
2023/04/03 10:53:05;;;;;;;4.53;1.20;;;;;;;6.67;88.72;102977.38;7390519;19;20447;-57
2023/04/03 10:55:43;;;;;;;4.50;1.50;;;;;;;6.59;88.26;102975.00;7387414;19;20750;-54
2023/04/03 10:58:19;;;;;;;4.73;1.60;;;;;;;6.57;87.97;102970.47;7390825;19;20412;-53
2023/04/03 11:00:52;;;;;;;5.43;1.30;;;;;;;6.24;86.45;102969.13;7388166;19;20439;-55
2023/04/03 11:03:29;;;;;;;4.60;1.73;;;;;;;6.25;87.46;102956.41;7390416;19;20436;-54
2023/04/03 11:06:00;;;;;;;5.33;1.17;;;;;;;6.02;87.59;102967.00;7387936;19;20468;-52
2023/04/03 11:08:32;;;;;;;6.57;2.00;;;;;;;6.37;87.70;102960.91;7392999;19;20747;-55
2023/04/03 11:11:08;;;;;;;6.60;1.43;;;;;;;6.60;86.78;102961.41;7387016;19;20447;-55
2023/04/03 11:13:43;;;;;;;4.70;1.43;;;;;;;6.22;86.01;102961.28;7390298;19;20455;-54
2023/04/03 11:16:16;;;;;;;6.87;2.87;;;;;;;6.21;88.18;102959.47;7387240;19;20450;-53
2023/04/03 11:18:48;;;;;;;5.30;1.70;;;;;;;6.17;89.42;102940.34;7392449;19;20939;-54
2023/04/03 11:21:22;;;;;;;4.73;1.53;;;;;;;6.58;88.79;102944.06;7394281;19;20793;-50
2023/04/03 11:23:53;;;;;;;5.03;1.37;;;;;;;6.91;86.51;102965.03;7398174;19;20820;-56
2023/04/03 11:26:29;;;;;;;8.70;3.30;;;;;;;7.28;86.39;102966.69;7394171;19;20447;-52
2023/04/03 11:29:01;;;;;;;4.67;1.20;;;;;;;7.38;85.57;102968.44;7395990;19;20759;-53
2023/04/03 11:31:40;;;;;;;9.37;2.20;;;;;;;7.24;85.56;102963.72;7391292;19;20453;-53
2023/04/03 11:34:21;;;;;;;4.60;1.40;;;;;;;7.11;86.76;102961.69;7394870;19;20419;-54
2023/04/03 11:36:53;;;;;;;6.33;1.57;;;;;;;7.21;88.76;102953.16;7387063;19;20831;-50
2023/04/03 11:39:25;;;;;;;4.07;1.00;;;;;;;7.13;87.61;102940.53;7391436;19;20412;-56
2023/04/03 11:41:58;;;;;;;7.00;1.30;;;;;;;6.68;90.27;102935.56;7389277;19;20471;-57